Troutville, VA

5:40 PM EDT on August 29, 2016 (GMT -0400)
laymantown | | Change Station

Elev 1096 ft 37.35 °N, 79.84 °W | Updated 1 second ago

Mostly Cloudy
Mostly Cloudy
91.2 °F
Feels Like 96 °F
N
1.1
Wind Variable Wind from ESE
Gusts 2.5 mph

Today
High -- | Low -- °F
--% Chance of Precip.
Yesterday
High -- | Low -- °F
Precip. -- in
Pressure 30.12 in
Visibility 10.0 miles
Clouds Few 4700 ft
Mostly Cloudy 21000 ft
Heat Index 96 °F
Dew Point 69 °F
Humidity 48%
Rainfall 0.00 in
Snow Depth Not available.
6:47 AM 7:52 PM
Waning Crescent, 7% visible
METAR KROA 292054Z 14006KT 10SM FEW047 BKN210 31/19 A3015 RMK AO2 SLP197 T03110189 56017
Pressure 30.12 in
Visibility 10.0 miles
Clouds Few 4700 ft
Mostly Cloudy 21000 ft
Heat Index 96 °F
Dew Point 69 °F
Humidity 48%
Rainfall 0.00 in
Snow Depth Not available.
6:47 AM 7:52 PM
Waning Crescent, 7% visible
METAR KROA 292054Z 14006KT 10SM FEW047 BKN210 31/19 A3015 RMK AO2 SLP197 T03110189 56017

10-Day Weather Forecast

Almanac

Astronomy

Aug. 29, 2016 Rise Set
Actual Time
Civil Twilight
Nautical Twilight
Astronomical Twilight
Moon
Length of Visible Light
Length of Day
Tomorrow will be .
, % of the Moon is Illuminated

Today's Extremes

State Highs State Lows

Community

WunderPhotos

Upload Photos

1,935,679 photos uploaded!

WunderBlog® & News

Nearby

Air Quality

  Air Quality AQ Index Pollutant
Not available.

Snow Depth

Station Depth Elevation

Earthquake Activity

City Distance Mag. Time & Date
Minimum magnitude displayed is 2.5.

Coastal Water Temperatures

Place Temperature

Stations

Nearby Weather Stations

Station Location Temp. Windchill Dew Point Humidity Wind Precip. Elev Updated Type
                   

Watches & Warnings

There are currently no watches in effect.